Time;durP1;ratioP1;P1;durP2;ratioP2;P2;SDS_P1;SDS_P2;PMS_P1;PMS_P2;Temp;Humidity;BMP_temperature;BMP_pressure;BME280_temperature;BME280_humidity;BME280_pressure;Samples;Min_cycle;Max_cycle;Signal;HPM_P1;HPM_P2
2021/12/18 00:00:51;;;;;;;11.57;6.47;;;;;;;1.11;100.00;94793.38;5035613;28;20205;-62
2021/12/18 00:03:23;;;;;;;10.00;5.90;;;;;;;1.11;100.00;94797.59;5035545;28;20247;-62
2021/12/18 00:05:56;;;;;;;10.10;5.70;;;;;;;1.09;100.00;94805.16;5035226;28;20285;-63
2021/12/18 00:08:22;;;;;;;10.67;6.03;;;;;;;1.10;100.00;94804.28;5035436;28;20197;-63
2021/12/18 00:10:48;;;;;;;12.27;7.07;;;;;;;1.15;100.00;94796.59;5033834;28;20213;-64
2021/12/18 00:13:13;;;;;;;12.37;6.33;;;;;;;1.20;100.00;94804.66;5035011;28;20171;-64
2021/12/18 00:15:39;;;;;;;12.03;6.57;;;;;;;1.41;100.00;94803.69;5035100;28;20213;-64
2021/12/18 00:18:05;;;;;;;12.03;6.10;;;;;;;1.45;100.00;94800.97;5034908;28;20272;-65
2021/12/18 00:20:31;;;;;;;11.17;6.30;;;;;;;1.42;100.00;94803.59;5034978;28;20216;-65
2021/12/18 00:22:56;;;;;;;12.03;7.30;;;;;;;1.33;100.00;94806.56;5031970;28;20222;-63
2021/12/18 00:25:22;;;;;;;13.50;6.50;;;;;;;1.39;100.00;94806.28;5034932;28;20675;-63
2021/12/18 00:27:56;;;;;;;12.27;7.10;;;;;;;1.27;100.00;94814.31;5034112;28;20217;-62
2021/12/18 00:30:22;;;;;;;10.97;6.67;;;;;;;1.28;100.00;94808.44;5034700;28;20214;-64
2021/12/18 00:32:47;;;;;;;12.60;6.83;;;;;;;1.27;100.00;94811.81;5033984;28;20560;-61
2021/12/18 00:35:13;;;;;;;10.10;6.90;;;;;;;1.24;100.00;94811.97;5034605;28;20565;-62
2021/12/18 00:37:38;;;;;;;12.80;6.97;;;;;;;1.17;100.00;94818.13;5034008;28;20202;-63
2021/12/18 00:40:09;;;;;;;10.80;6.50;;;;;;;1.34;100.00;94813.16;5034477;28;20637;-63
2021/12/18 00:45:00;;;;;;;9.97;6.37;;;;;;;1.57;100.00;94817.09;5034571;28;20670;-62
2021/12/18 00:47:26;;;;;;;8.50;5.47;;;;;;;1.58;100.00;94813.69;5033422;28;20203;-64
2021/12/18 00:49:51;;;;;;;9.50;6.63;;;;;;;1.79;100.00;94836.94;5032447;28;20609;-62
2021/12/18 00:52:17;;;;;;;10.43;6.50;;;;;;;2.01;100.00;94845.03;5032884;28;20590;-61
2021/12/18 00:54:42;;;;;;;11.70;6.00;;;;;;;1.84;100.00;94840.03;5034496;28;20186;-63
2021/12/18 00:57:07;;;;;;;12.87;6.80;;;;;;;2.17;100.00;94853.44;5033734;28;20258;-63
2021/12/18 00:59:34;;;;;;;9.63;6.83;;;;;;;2.15;100.00;94837.66;5034493;28;20186;-64
2021/12/18 01:02:00;;;;;;;9.03;6.20;;;;;;;2.09;100.00;94848.78;5034322;28;20194;-61
2021/12/18 01:04:26;;;;;;;9.17;5.67;;;;;;;1.69;100.00;94824.84;5034425;28;20192;-63
2021/12/18 01:06:52;;;;;;;12.13;6.53;;;;;;;1.73;100.00;94814.66;5034320;28;20206;-63
2021/12/18 01:09:22;;;;;;;10.53;6.50;;;;;;;1.68;100.00;94824.91;5034697;28;20190;-61
2021/12/18 01:11:49;;;;;;;12.50;6.47;;;;;;;1.65;100.00;94818.38;5034116;28;20218;-63
2021/12/18 01:25:06;;;;;;;9.50;5.73;;;;;;;1.43;100.00;94812.75;5033956;28;20240;-61
2021/12/18 01:27:31;;;;;;;12.50;6.67;;;;;;;1.29;100.00;94812.59;5032455;28;20696;-63
2021/12/18 01:29:57;;;;;;;11.77;6.53;;;;;;;1.41;100.00;94803.69;5032455;28;20214;-60
2021/12/18 01:32:24;;;;;;;11.17;6.17;;;;;;;1.42;100.00;94815.31;5032269;28;20267;-64
2021/12/18 01:34:50;;;;;;;14.90;6.50;;;;;;;1.57;100.00;94814.59;5033803;28;20186;-65
2021/12/18 01:37:16;;;;;;;8.87;5.77;;;;;;;1.53;100.00;94810.63;5033177;28;20718;-62
2021/12/18 01:39:42;;;;;;;10.27;6.97;;;;;;;1.40;100.00;94815.38;5033579;28;20170;-65
2021/12/18 01:45:02;;;;;;;10.40;5.90;;;;;;;1.29;100.00;94810.09;5033329;28;20178;-63
2021/12/18 01:52:56;;;;;;;10.27;5.47;;;;;;;1.16;100.00;94794.00;5033520;28;20205;-60
2021/12/18 01:55:27;;;;;;;9.93;5.90;;;;;;;1.10;100.00;94793.47;5033129;28;20182;-65
2021/12/18 01:57:53;;;;;;;10.30;6.10;;;;;;;1.08;100.00;94788.53;5033074;28;20679;-63
2021/12/18 02:00:22;;;;;;;9.63;6.13;;;;;;;1.12;100.00;94786.69;5033002;28;20247;-60
2021/12/18 02:02:48;;;;;;;11.47;5.83;;;;;;;1.11;100.00;94788.38;5033020;28;20194;-64
2021/12/18 02:05:14;;;;;;;8.93;5.60;;;;;;;1.05;100.00;94783.66;5033168;28;20266;-65
2021/12/18 02:07:40;;;;;;;12.43;6.20;;;;;;;1.01;100.00;94781.38;5032868;28;20213;-64
2021/12/18 02:10:11;;;;;;;8.50;5.77;;;;;;;0.97;100.00;94780.69;5030793;28;20259;-64
2021/12/18 02:21:15;;;;;;;8.53;5.40;;;;;;;0.98;100.00;94781.50;5032733;28;20213;-64
2021/12/18 02:23:41;;;;;;;10.87;6.53;;;;;;;0.84;100.00;94782.16;5032670;28;20276;-61
2021/12/18 02:26:07;;;;;;;11.37;5.50;;;;;;;0.93;100.00;94791.72;5032907;28;20230;-66
2021/12/18 02:28:32;;;;;;;10.43;5.60;;;;;;;0.97;100.00;94783.19;5033032;28;20549;-64
2021/12/18 02:30:58;;;;;;;11.13;6.00;;;;;;;0.97;100.00;94783.19;5032712;28;20234;-63
2021/12/18 02:33:26;;;;;;;11.13;6.00;;;;;;;1.02;100.00;94793.81;5032840;28;20535;-62
2021/12/18 02:35:54;;;;;;;11.57;6.00;;;;;;;1.06;100.00;94800.31;5031080;28;20205;-61
2021/12/18 02:41:45;;;;;;;9.30;5.60;;;;;;;0.95;100.00;94797.47;5032137;28;20292;-63
2021/12/18 02:44:12;;;;;;;9.93;5.30;;;;;;;0.92;100.00;94790.13;5032765;28;20213;-64
2021/12/18 02:46:40;;;;;;;8.97;5.37;;;;;;;0.97;100.00;94798.22;5032216;28;20204;-64
2021/12/18 02:49:10;;;;;;;9.97;6.30;;;;;;;1.02;100.00;94801.34;5031945;28;20620;-61
2021/12/18 02:51:36;;;;;;;9.50;6.07;;;;;;;1.01;100.00;94807.19;5031098;28;20786;-60
2021/12/18 02:54:02;;;;;;;10.23;5.80;;;;;;;1.07;100.00;94803.63;5031672;28;20189;-64
2021/12/18 02:56:27;;;;;;;8.67;5.50;;;;;;;1.07;100.00;94806.13;5032261;28;20197;-65
2021/12/18 02:58:59;;;;;;;7.83;5.37;;;;;;;0.90;100.00;94809.38;5031130;28;20197;-67
2021/12/18 03:01:27;;;;;;;9.23;6.07;;;;;;;0.92;100.00;94795.13;5030580;28;20286;-63
2021/12/18 03:03:55;;;;;;;10.27;5.90;;;;;;;1.05;100.00;94801.19;5032046;28;20573;-62
2021/12/18 03:06:31;;;;;;;9.57;6.30;;;;;;;0.92;100.00;94800.13;5031895;28;20216;-65
2021/12/18 03:25:08;;;;;;;9.10;6.83;;;;;;;0.63;100.00;94808.91;5032059;28;20585;-65
2021/12/18 03:27:34;;;;;;;13.13;6.70;;;;;;;0.59;100.00;94804.94;5030392;28;20216;-60
2021/12/18 03:30:00;;;;;;;10.90;6.83;;;;;;;0.47;100.00;94807.97;5031785;28;20174;-63
2021/12/18 03:32:26;;;;;;;11.53;7.07;;;;;;;0.55;100.00;94805.94;5031784;28;20227;-65
2021/12/18 03:34:52;;;;;;;13.23;6.90;;;;;;;0.58;100.00;94810.00;5031734;28;20273;-62
2021/12/18 03:37:19;;;;;;;14.60;8.13;;;;;;;0.58;100.00;94820.00;5030398;28;20583;-65
2021/12/18 03:39:45;;;;;;;12.63;6.30;;;;;;;0.61;100.00;94827.38;5031682;28;20654;-64
2021/12/18 03:42:11;;;;;;;13.30;7.67;;;;;;;0.61;100.00;94820.69;5031041;28;20576;-65
2021/12/18 03:44:37;;;;;;;13.30;7.37;;;;;;;0.59;100.00;94826.63;5030568;28;20185;-61
2021/12/18 03:47:04;;;;;;;11.30;7.13;;;;;;;0.50;100.00;94820.34;5030618;28;20206;-65
2021/12/18 03:49:30;;;;;;;11.83;7.20;;;;;;;0.42;100.00;94814.88;5039053;22;20221;-63
2021/12/18 03:51:55;;;;;;;12.47;7.10;;;;;;;0.36;100.00;94829.31;5031635;28;20623;-65
2021/12/18 03:54:21;;;;;;;13.40;6.50;;;;;;;0.36;100.00;94829.31;5031776;28;20277;-65
2021/12/18 03:56:47;;;;;;;12.70;7.57;;;;;;;0.34;100.00;94831.88;5031527;28;20210;-64
2021/12/18 03:59:12;;;;;;;9.57;6.60;;;;;;;0.30;100.00;94830.41;5030227;28;20676;-64
2021/12/18 04:01:38;;;;;;;15.17;6.77;;;;;;;0.38;100.00;94830.06;5031723;28;20209;-64
2021/12/18 04:04:04;;;;;;;12.97;7.17;;;;;;;0.60;100.00;94833.25;5031349;28;20247;-62
2021/12/18 04:06:31;;;;;;;9.87;6.50;;;;;;;0.60;100.00;94835.75;5029679;28;20707;-64
2021/12/18 04:08:56;;;;;;;15.33;6.63;;;;;;;0.48;100.00;94841.28;5030943;28;20192;-64
2021/12/18 04:11:22;;;;;;;13.13;7.27;;;;;;;0.28;100.00;94831.34;5032065;28;20679;-66
2021/12/18 04:13:48;;;;;;;14.33;7.40;;;;;;;0.15;100.00;94835.22;5031571;28;20193;-64
2021/12/18 04:16:14;;;;;;;10.83;6.60;;;;;;;0.26;100.00;94836.41;5030339;28;20213;-65
2021/12/18 04:18:40;;;;;;;14.83;7.57;;;;;;;0.41;100.00;94839.91;5030073;28;20212;-62
2021/12/18 04:21:06;;;;;;;16.03;7.27;;;;;;;0.44;100.00;94847.31;5032019;28;20201;-63
2021/12/18 04:23:32;;;;;;;11.23;7.27;;;;;;;0.46;100.00;94848.03;5031483;28;20675;-64
2021/12/18 04:25:57;;;;;;;10.63;7.50;;;;;;;0.56;100.00;94846.78;5031800;28;20231;-65
2021/12/18 04:28:24;;;;;;;13.27;7.67;;;;;;;0.48;100.00;94856.28;5031571;28;20255;-60
2021/12/18 04:30:50;;;;;;;12.30;8.37;;;;;;;0.47;100.00;94847.16;5031396;28;20415;-65
2021/12/18 04:33:16;;;;;;;13.30;8.30;;;;;;;0.57;100.00;94855.88;5031617;28;20194;-64
2021/12/18 04:35:42;;;;;;;16.83;8.57;;;;;;;0.56;100.00;94852.59;5033291;28;20244;-64
2021/12/18 04:38:08;;;;;;;14.83;8.80;;;;;;;0.70;100.00;94852.00;5034761;28;20660;-64
2021/12/18 04:40:35;;;;;;;12.57;8.00;;;;;;;0.62;100.00;94852.34;5033682;28;20182;-62
2021/12/18 04:43:01;;;;;;;15.57;8.07;;;;;;;0.66;100.00;94850.50;5034425;28;20190;-62
2021/12/18 04:45:26;;;;;;;12.97;7.53;;;;;;;0.54;100.00;94853.53;5034827;28;20171;-64
2021/12/18 04:47:54;;;;;;;11.63;7.43;;;;;;;0.60;100.00;94853.25;5034646;28;20185;-64
2021/12/18 04:50:20;;;;;;;12.83;7.23;;;;;;;0.63;100.00;94853.13;5034197;28;20209;-65
2021/12/18 04:52:46;;;;;;;10.80;6.87;;;;;;;0.64;100.00;94867.25;5034530;28;20186;-64
2021/12/18 04:55:12;;;;;;;13.43;6.07;;;;;;;0.70;100.00;94855.31;5034645;28;20190;-63
2021/12/18 04:57:38;;;;;;;11.97;6.30;;;;;;;0.82;100.00;94867.28;5034312;28;20241;-63
2021/12/18 05:00:05;;;;;;;9.60;6.00;;;;;;;0.89;100.00;94872.81;5034502;28;20228;-64
2021/12/18 05:02:38;;;;;;;10.70;6.67;;;;;;;0.99;100.00;94881.53;5033020;28;20208;-60
2021/12/18 05:05:04;;;;;;;8.40;5.77;;;;;;;1.01;100.00;94874.78;5032794;28;20185;-64
2021/12/18 05:07:30;;;;;;;13.70;6.63;;;;;;;1.03;100.00;94888.03;5034020;28;20227;-61
2021/12/18 05:09:55;;;;;;;7.80;5.27;;;;;;;0.92;100.00;94896.88;5034528;28;20601;-61
2021/12/18 05:12:21;;;;;;;8.27;5.50;;;;;;;1.04;100.00;94891.34;5034068;28;20263;-64
2021/12/18 05:14:46;;;;;;;12.40;6.10;;;;;;;0.86;100.00;94895.47;5034404;28;20175;-64
2021/12/18 05:17:12;;;;;;;8.97;5.10;;;;;;;0.80;100.00;94903.25;5033905;28;20237;-61
2021/12/18 05:19:37;;;;;;;10.40;5.60;;;;;;;0.82;100.00;94909.81;5034229;28;20193;-65
2021/12/18 05:22:04;;;;;;;13.47;5.40;;;;;;;0.77;100.00;94904.19;5033835;28;20198;-65
2021/12/18 05:24:30;;;;;;;13.10;5.37;;;;;;;0.83;100.00;94918.09;5034182;28;20189;-62
2021/12/18 05:26:55;;;;;;;9.63;5.03;;;;;;;0.83;100.00;94918.09;5033908;28;20719;-64
2021/12/18 05:29:21;;;;;;;8.67;5.27;;;;;;;0.75;100.00;94905.13;5033659;28;20681;-63
2021/12/18 05:31:46;;;;;;;9.83;5.43;;;;;;;0.88;100.00;94921.25;5033072;28;20291;-65
2021/12/18 05:34:20;;;;;;;8.87;5.07;;;;;;;0.79;100.00;94919.94;5032066;28;20612;-61
2021/12/18 05:39:21;;;;;;;12.60;6.90;;;;;;;0.80;100.00;94918.25;5033713;28;20256;-64
2021/12/18 05:41:49;;;;;;;8.73;5.77;;;;;;;0.65;100.00;94921.38;5033616;28;20276;-64
2021/12/18 05:44:15;;;;;;;12.83;6.20;;;;;;;0.67;100.00;94927.13;5033548;28;20262;-61
2021/12/18 05:46:40;;;;;;;8.67;6.03;;;;;;;0.75;100.00;94932.63;5033504;28;20217;-64
2021/12/18 05:49:06;;;;;;;10.13;6.10;;;;;;;0.73;100.00;94932.69;5033128;28;20178;-64
2021/12/18 05:51:32;;;;;;;11.07;6.07;;;;;;;0.71;100.00;94936.13;5033237;28;20217;-64
2021/12/18 05:53:57;;;;;;;10.13;5.37;;;;;;;0.67;100.00;94932.13;5033338;28;20659;-62
2021/12/18 05:56:23;;;;;;;7.90;5.60;;;;;;;0.68;100.00;94943.78;5033764;28;20229;-63
2021/12/18 05:58:48;;;;;;;8.97;5.60;;;;;;;0.68;100.00;94931.28;5033332;28;20186;-64
2021/12/18 06:01:14;;;;;;;8.60;5.70;;;;;;;0.71;100.00;94938.63;5033572;28;20300;-63
2021/12/18 06:03:41;;;;;;;9.63;5.60;;;;;;;0.81;100.00;94940.69;5031033;28;20186;-62
2021/12/18 06:06:07;;;;;;;13.90;6.57;;;;;;;0.74;100.00;94953.53;5018353;23;20230;-63
2021/12/18 06:08:35;;;;;;;13.07;6.10;;;;;;;0.72;100.00;94947.78;5012276;28;20731;-67
2021/12/18 06:11:06;;;;;;;10.63;6.43;;;;;;;0.68;100.00;94946.28;5012865;28;20690;-65
2021/12/18 06:13:31;;;;;;;12.43;6.50;;;;;;;0.66;100.00;94948.84;5013389;28;20700;-63
2021/12/18 06:15:58;;;;;;;13.47;5.70;;;;;;;0.67;100.00;94949.66;5011836;28;20809;-62
2021/12/18 06:18:23;;;;;;;12.83;6.10;;;;;;;0.64;100.00;94962.28;5012022;28;20193;-62
2021/12/18 06:20:49;;;;;;;11.23;5.27;;;;;;;0.60;100.00;94969.13;4995444;28;20210;-64
2021/12/18 06:23:14;;;;;;;12.13;5.97;;;;;;;1.35;100.00;94960.03;5013089;28;20212;-63
2021/12/18 06:25:39;;;;;;;12.77;6.30;;;;;;;1.27;100.00;94981.28;5012822;28;20195;-63
2021/12/18 06:28:05;;;;;;;11.40;5.83;;;;;;;1.14;100.00;94977.66;5013084;28;20560;-65
2021/12/18 06:30:30;;;;;;;10.47;6.13;;;;;;;1.15;100.00;94980.09;5012323;28;20205;-65
2021/12/18 06:32:56;;;;;;;13.13;6.60;;;;;;;0.93;100.00;94986.88;5011254;28;20174;-64
2021/12/18 06:35:21;;;;;;;12.53;7.03;;;;;;;0.86;100.00;94978.03;5011731;28;20186;-64
2021/12/18 06:37:47;;;;;;;14.23;7.43;;;;;;;0.88;100.00;94981.28;5011848;28;20585;-63
2021/12/18 06:40:13;;;;;;;10.10;6.57;;;;;;;0.72;100.00;94982.81;5011340;28;20208;-63
2021/12/18 06:42:39;;;;;;;12.80;6.90;;;;;;;0.79;100.00;94987.47;5011222;28;20282;-61
2021/12/18 06:45:06;;;;;;;13.63;6.87;;;;;;;0.67;100.00;94982.97;5013124;28;20273;-64
2021/12/18 06:47:31;;;;;;;13.40;7.07;;;;;;;0.76;100.00;94992.63;5011384;28;20194;-65
2021/12/18 06:49:57;;;;;;;20.77;8.03;;;;;;;0.85;100.00;94992.22;5012229;28;20190;-64
2021/12/18 06:52:22;;;;;;;13.30;7.50;;;;;;;1.32;100.00;94994.38;5012168;28;20537;-64
2021/12/18 06:54:48;;;;;;;16.53;8.60;;;;;;;1.32;100.00;94992.72;5012590;28;20191;-64
2021/12/18 06:57:13;;;;;;;17.37;8.43;;;;;;;1.20;100.00;94979.91;5011420;28;20217;-64
2021/12/18 06:59:39;;;;;;;14.53;7.23;;;;;;;1.29;100.00;94995.34;5011935;28;20630;-62
2021/12/18 07:02:04;;;;;;;12.37;6.80;;;;;;;1.20;100.00;95000.75;5009961;28;20206;-63
2021/12/18 07:04:30;;;;;;;10.40;6.03;;;;;;;1.25;100.00;95008.06;5010365;28;20187;-64
2021/12/18 07:06:55;;;;;;;10.27;6.60;;;;;;;1.18;100.00;95022.53;5011529;28;20198;-64
2021/12/18 07:09:21;;;;;;;11.73;6.53;;;;;;;1.04;100.00;95017.28;5012166;28;20190;-61
2021/12/18 07:11:47;;;;;;;12.20;7.40;;;;;;;0.90;100.00;95017.06;5012165;28;20794;-62
2021/12/18 07:14:15;;;;;;;14.27;7.47;;;;;;;1.02;100.00;95020.72;5012457;28;20539;-62
2021/12/18 07:16:40;;;;;;;14.23;6.60;;;;;;;0.97;100.00;95023.41;5012031;28;20685;-62
2021/12/18 07:19:06;;;;;;;14.00;7.50;;;;;;;0.96;100.00;95021.81;5012313;28;20179;-65
2021/12/18 07:21:31;;;;;;;13.90;6.47;;;;;;;0.97;100.00;95018.41;5010763;28;20205;-64
2021/12/18 07:23:57;;;;;;;13.77;7.13;;;;;;;1.10;100.00;95016.22;5012315;28;20186;-64
2021/12/18 07:26:22;;;;;;;13.43;7.37;;;;;;;1.10;100.00;95022.03;5012021;28;20191;-64
2021/12/18 07:28:48;;;;;;;13.77;7.50;;;;;;;1.12;100.00;95022.78;5012105;28;20706;-61
2021/12/18 07:31:13;;;;;;;13.53;7.37;;;;;;;1.08;100.00;95027.97;5011489;28;20221;-61
2021/12/18 07:33:41;;;;;;;11.10;7.03;;;;;;;1.10;100.00;95029.56;5011137;28;20238;-65
2021/12/18 07:36:08;;;;;;;10.70;6.93;;;;;;;1.08;100.00;95030.47;5010416;28;20202;-64
2021/12/18 07:38:34;;;;;;;11.30;7.83;;;;;;;1.10;100.00;95031.22;5012076;28;20183;-64
2021/12/18 07:41:00;;;;;;;15.57;7.93;;;;;;;1.23;100.00;95030.66;5010622;28;20213;-63
2021/12/18 07:43:25;;;;;;;11.73;6.60;;;;;;;1.36;100.00;95035.94;5010672;28;20183;-61
2021/12/18 07:45:51;;;;;;;14.03;8.00;;;;;;;1.39;100.00;95044.16;5011897;28;20248;-64
2021/12/18 07:48:17;;;;;;;14.17;7.90;;;;;;;1.55;100.00;95047.63;5010328;28;20185;-62
2021/12/18 07:50:43;;;;;;;9.87;6.30;;;;;;;1.42;100.00;95045.69;5011942;28;20210;-66
2021/12/18 07:53:08;;;;;;;13.33;6.83;;;;;;;1.36;100.00;95050.97;5011806;28;20492;-62
2021/12/18 07:55:34;;;;;;;12.20;6.40;;;;;;;1.21;100.00;95056.66;5010396;28;20187;-65
2021/12/18 07:57:59;;;;;;;12.83;6.93;;;;;;;1.29;100.00;95054.63;5011788;28;20183;-62
2021/12/18 08:00:25;;;;;;;14.33;6.67;;;;;;;1.29;100.00;95059.63;5011492;28;20277;-61
2021/12/18 08:02:50;;;;;;;10.47;6.07;;;;;;;1.37;100.00;95070.13;5010314;28;20615;-64
2021/12/18 08:05:16;;;;;;;12.03;7.07;;;;;;;1.46;100.00;95075.56;5011658;28;20195;-64
2021/12/18 08:07:42;;;;;;;11.83;7.43;;;;;;;1.42;100.00;95079.06;5012746;28;20193;-64
2021/12/18 08:10:08;;;;;;;9.83;6.03;;;;;;;1.52;100.00;95092.00;5015715;28;20652;-66
2021/12/18 08:12:33;;;;;;;11.07;6.77;;;;;;;1.63;100.00;95084.84;5022310;23;20222;-65
2021/12/18 08:14:59;;;;;;;12.70;6.73;;;;;;;1.69;100.00;95075.41;5015486;28;20663;-64
2021/12/18 08:17:25;;;;;;;9.53;6.23;;;;;;;1.64;100.00;95092.31;5015290;28;20207;-64
2021/12/18 08:19:51;;;;;;;12.17;6.90;;;;;;;1.65;100.00;95098.13;5015362;28;20253;-65
2021/12/18 08:22:16;;;;;;;9.43;6.50;;;;;;;1.45;100.00;95091.47;5015957;28;20294;-64
2021/12/18 08:24:42;;;;;;;12.73;6.73;;;;;;;1.63;100.00;95100.72;5015368;28;20175;-65
2021/12/18 08:27:08;;;;;;;12.70;6.83;;;;;;;2.02;100.00;95104.88;5015598;28;20203;-65
2021/12/18 08:29:34;;;;;;;14.73;8.40;;;;;;;2.27;100.00;95107.88;5014966;28;20189;-63
2021/12/18 08:31:59;;;;;;;12.07;7.13;;;;;;;2.22;100.00;95109.78;5014868;28;20615;-64
2021/12/18 08:34:25;;;;;;;13.23;6.30;;;;;;;2.21;100.00;95108.16;5013601;28;20711;-61
2021/12/18 08:36:51;;;;;;;12.50;6.77;;;;;;;2.28;100.00;95114.53;5012970;28;20294;-64
2021/12/18 08:39:17;;;;;;;10.83;6.63;;;;;;;2.19;100.00;95118.25;5013566;28;20571;-62
2021/12/18 08:41:44;;;;;;;12.70;7.07;;;;;;;2.31;100.00;95114.38;5015110;28;20230;-61
2021/12/18 08:44:10;;;;;;;12.57;7.57;;;;;;;2.21;100.00;95119.00;5015175;28;20668;-64
2021/12/18 08:46:36;;;;;;;12.50;7.53;;;;;;;2.12;100.00;95111.88;5015141;28;20610;-65
2021/12/18 08:49:02;;;;;;;11.17;7.07;;;;;;;1.95;100.00;95114.34;5014739;28;20211;-65
2021/12/18 08:51:28;;;;;;;12.67;7.17;;;;;;;1.95;100.00;95101.81;5014922;28;20232;-63
2021/12/18 08:53:53;;;;;;;12.63;7.27;;;;;;;2.03;100.00;95116.50;5014648;28;20178;-63
2021/12/18 08:56:19;;;;;;;10.87;6.53;;;;;;;2.35;100.00;95126.72;5014863;28;20225;-62
2021/12/18 08:58:44;;;;;;;11.20;6.93;;;;;;;2.46;100.00;95118.72;5014335;28;20179;-61
2021/12/18 09:01:10;;;;;;;11.93;6.63;;;;;;;2.36;100.00;95110.78;5014299;28;20203;-66
2021/12/18 09:03:35;;;;;;;13.03;6.80;;;;;;;2.56;100.00;95114.88;5014544;28;20184;-65
2021/12/18 09:06:01;;;;;;;10.13;6.63;;;;;;;2.95;100.00;95138.09;5014626;28;20668;-63
2021/12/18 09:08:27;;;;;;;10.60;5.73;;;;;;;3.20;100.00;95148.63;5014273;28;20660;-64
2021/12/18 09:10:52;;;;;;;8.30;6.07;;;;;;;3.28;100.00;95133.97;5014209;28;20218;-64
2021/12/18 09:13:18;;;;;;;10.30;6.00;;;;;;;3.33;100.00;95141.31;5014440;28;20269;-65
2021/12/18 09:15:43;;;;;;;10.53;6.00;;;;;;;3.57;100.00;95141.78;5013974;28;20210;-62
2021/12/18 09:18:09;;;;;;;10.97;6.43;;;;;;;3.48;100.00;95125.47;5013566;28;20233;-64
2021/12/18 09:20:35;;;;;;;11.97;6.40;;;;;;;3.12;100.00;95130.59;5014180;28;20218;-64
2021/12/18 09:23:01;;;;;;;15.70;6.87;;;;;;;3.21;100.00;95094.19;5014039;28;20182;-65
2021/12/18 09:25:28;;;;;;;11.83;7.10;;;;;;;3.12;100.00;95102.97;5012684;28;20195;-64
2021/12/18 09:28:01;;;;;;;15.07;7.60;;;;;;;3.03;100.00;95100.88;5012659;28;20198;-65
2021/12/18 09:30:26;;;;;;;11.27;6.53;;;;;;;2.92;100.00;95095.59;5012909;28;20219;-64
2021/12/18 09:32:51;;;;;;;11.67;6.97;;;;;;;3.07;100.00;95102.38;5012444;28;20205;-65
2021/12/18 09:35:18;;;;;;;8.67;6.33;;;;;;;3.18;100.00;95122.75;5013681;28;20182;-65
2021/12/18 09:37:44;;;;;;;12.57;6.90;;;;;;;3.23;100.00;95128.34;5013771;28;20633;-66
2021/12/18 09:40:11;;;;;;;11.60;7.03;;;;;;;3.54;100.00;95134.38;5012228;28;20570;-65
2021/12/18 09:42:38;;;;;;;9.97;5.57;;;;;;;3.77;100.00;95161.72;5012317;28;20209;-62
2021/12/18 09:45:05;;;;;;;7.83;4.80;;;;;;;3.66;100.00;95151.38;5013477;28;20171;-62
2021/12/18 09:47:30;;;;;;;13.33;5.53;;;;;;;3.74;100.00;95146.78;5012084;28;20592;-65
2021/12/18 09:49:56;;;;;;;8.10;3.97;;;;;;;4.12;100.00;95151.47;5013455;28;20689;-62
2021/12/18 09:52:22;;;;;;;7.90;3.50;;;;;;;3.88;100.00;95182.13;5013344;28;20226;-64
2021/12/18 09:54:48;;;;;;;3.30;2.43;;;;;;;3.47;100.00;95190.88;5013426;28;20218;-65
2021/12/18 09:57:13;;;;;;;5.60;3.00;;;;;;;3.66;100.00;95156.41;5013830;28;20234;-65
2021/12/18 09:59:39;;;;;;;2.93;2.30;;;;;;;3.72;99.33;95208.88;5013388;28;20244;-65
2021/12/18 10:02:05;;;;;;;4.30;3.13;;;;;;;3.97;100.00;95146.44;5013871;28;20248;-64
2021/12/18 10:04:31;;;;;;;5.37;3.43;;;;;;;4.62;97.78;95241.97;5013302;28;20190;-63
2021/12/18 10:06:59;;;;;;;5.03;3.30;;;;;;;4.63;96.17;95218.41;5012052;28;20211;-62
2021/12/18 10:09:25;;;;;;;5.37;3.83;;;;;;;5.33;97.47;95185.19;5011666;28;20179;-63
2021/12/18 10:11:53;;;;;;;5.70;3.50;;;;;;;5.63;95.60;95212.91;5012807;28;20235;-63
2021/12/18 10:14:31;;;;;;;6.70;4.07;;;;;;;4.97;96.29;95177.13;5012990;28;20553;-65
2021/12/18 10:16:57;;;;;;;6.73;4.87;;;;;;;4.48;100.00;95118.56;5011649;28;20204;-64
2021/12/18 10:19:28;;;;;;;7.27;4.43;;;;;;;4.27;100.00;95089.47;5012164;28;20183;-62
2021/12/18 10:22:03;;;;;;;12.03;4.53;;;;;;;4.12;100.00;95060.13;5012429;28;20285;-64
2021/12/18 10:24:30;;;;;;;8.73;5.60;;;;;;;3.94;100.00;95059.38;5012931;28;20166;-64
2021/12/18 10:26:56;;;;;;;10.17;5.33;;;;;;;4.34;100.00;95062.31;5011740;28;20214;-62
2021/12/18 10:29:28;;;;;;;5.07;3.73;;;;;;;4.75;100.00;95091.84;5011475;28;20179;-61
2021/12/18 10:31:55;;;;;;;5.97;4.27;;;;;;;5.03;100.00;95128.91;5012741;28;20645;-66
2021/12/18 10:34:27;;;;;;;7.93;4.77;;;;;;;4.97;100.00;95149.41;5013003;28;20182;-64
2021/12/18 10:37:13;;;;;;;13.47;6.53;;;;;;;4.71;100.00;95147.50;5011723;28;20297;-62
2021/12/18 10:39:45;;;;;;;7.87;4.60;;;;;;;4.96;100.00;95133.50;5012893;28;20270;-64
2021/12/18 10:42:18;;;;;;;6.13;4.33;;;;;;;4.69;99.41;95162.69;5013148;28;20203;-64
2021/12/18 10:45:08;;;;;;;8.00;5.03;;;;;;;5.06;100.00;95127.06;5011727;28;20177;-63
2021/12/18 10:47:47;;;;;;;5.57;3.83;;;;;;;5.32;99.06;95144.94;5010789;28;20318;-63
2021/12/18 10:50:21;;;;;;;6.53;3.63;;;;;;;5.31;95.70;95197.06;5011589;28;20246;-61
2021/12/18 10:53:05;;;;;;;6.73;4.67;;;;;;;5.20;97.32;95148.97;5013183;28;20260;-64
2021/12/18 10:55:59;;;;;;;4.73;3.27;;;;;;;5.20;97.07;95150.66;5012779;28;20587;-62
2021/12/18 10:58:36;;;;;;;5.87;3.90;;;;;;;4.85;97.53;95133.28;5011138;28;20204;-62
2021/12/18 11:01:09;;;;;;;10.13;6.03;;;;;;;4.36;100.00;95081.47;5012748;28;20211;-63
2021/12/18 11:03:39;;;;;;;8.33;4.30;;;;;;;4.50;100.00;95081.53;5012658;28;20170;-64
2021/12/18 11:06:25;;;;;;;7.87;4.30;;;;;;;4.57;100.00;95067.69;5012423;28;20553;-63
2021/12/18 11:09:12;;;;;;;5.07;3.20;;;;;;;4.57;97.83;95144.91;5010926;28;20175;-61
2021/12/18 11:14:24;;;;;;;4.83;2.40;;;;;;;4.53;94.42;95192.09;5031103;28;20210;-66
2021/12/18 11:17:01;;;;;;;3.23;2.40;;;;;;;4.58;93.43;95179.28;5030271;28;20201;-64
2021/12/18 11:19:32;;;;;;;2.17;1.80;;;;;;;4.46;95.04;95153.06;5040812;22;20300;-61
2021/12/18 11:21:59;;;;;;;2.80;1.80;;;;;;;4.57;93.28;95178.47;5032068;28;20248;-62
2021/12/18 11:24:34;;;;;;;4.40;1.87;;;;;;;4.22;94.51;95156.88;5032205;28;20186;-64
2021/12/18 11:27:05;;;;;;;3.50;1.80;;;;;;;4.12;95.80;95123.81;5031928;28;20197;-64
2021/12/18 11:30:02;;;;;;;2.73;2.03;;;;;;;4.23;96.13;95124.06;5031759;28;20670;-64
2021/12/18 11:32:28;;;;;;;1.93;1.40;;;;;;;4.24;95.01;95132.44;5031997;28;20273;-63
2021/12/18 11:34:56;;;;;;;3.30;1.77;;;;;;;4.35;93.70;95157.84;5031787;28;20182;-65
2021/12/18 11:37:24;;;;;;;2.63;1.87;;;;;;;4.29;95.05;95153.13;5030414;28;20218;-65
2021/12/18 11:39:51;;;;;;;4.00;1.90;;;;;;;4.65;92.73;95178.03;5032092;28;20187;-61
2021/12/18 11:42:18;;;;;;;3.90;1.80;;;;;;;4.66;91.73;95203.16;5032475;28;20199;-63
2021/12/18 11:44:56;;;;;;;3.43;1.80;;;;;;;4.45;93.02;95169.03;5035688;28;20194;-66
2021/12/18 11:47:21;;;;;;;3.33;1.87;;;;;;;4.55;93.54;95154.25;5035236;28;20219;-64
2021/12/18 11:49:47;;;;;;;2.63;1.90;;;;;;;4.57;94.06;95143.22;5034163;28;20255;-65
2021/12/18 11:52:12;;;;;;;3.03;1.97;;;;;;;4.62;95.97;95107.72;5034274;28;20247;-65
2021/12/18 11:54:45;;;;;;;4.53;2.20;;;;;;;4.63;93.16;95160.50;5035803;28;20236;-64
2021/12/18 11:57:12;;;;;;;2.50;1.90;;;;;;;4.63;96.08;95091.72;5035433;28;20280;-64
2021/12/18 11:59:43;;;;;;;2.97;1.97;;;;;;;4.63;93.53;95155.47;5035543;28;20613;-64
2021/12/18 12:02:12;;;;;;;2.93;1.97;;;;;;;4.46;93.93;95145.50;5035604;28;20290;-64
2021/12/18 12:05:01;;;;;;;3.60;2.43;;;;;;;4.40;93.36;95155.91;5035522;28;20665;-64
2021/12/18 12:07:28;;;;;;;2.17;1.50;;;;;;;4.38;93.06;95157.69;5035553;28;20688;-63
2021/12/18 12:13:03;;;;;;;2.67;1.70;;;;;;;4.06;94.79;95115.78;5035367;28;20197;-64
2021/12/18 12:15:28;;;;;;;3.00;1.60;;;;;;;3.94;95.51;95097.09;5032044;28;20274;-65
2021/12/18 12:17:55;;;;;;;2.60;1.57;;;;;;;3.91;94.73;95114.88;5035003;28;20265;-65
2021/12/18 12:20:42;;;;;;;5.37;1.87;;;;;;;4.01;94.67;95108.47;5035237;28;20284;-62
2021/12/18 12:23:10;;;;;;;3.87;1.60;;;;;;;4.01;94.42;95120.22;5033925;28;20189;-63
2021/12/18 12:25:44;;;;;;;3.70;2.10;;;;;;;3.84;93.94;95115.25;5034867;28;20248;-64
2021/12/18 12:28:30;;;;;;;3.37;2.00;;;;;;;3.80;95.96;95079.41;5035347;28;20185;-64